createdAt,value
2022-09-03T00:00:12.179Z,100.00
2022-09-03T00:03:11.373Z,100.00
2022-09-03T00:05:55.416Z,100.00
2022-09-03T00:08:31.714Z,100.00
2022-09-03T00:11:13.630Z,100.00
2022-09-03T00:13:55.823Z,100.00
2022-09-03T00:16:29.881Z,100.00
2022-09-03T00:19:02.019Z,100.00
2022-09-03T00:21:44.615Z,100.00
2022-09-03T00:24:16.899Z,100.00
2022-09-03T00:26:52.141Z,100.00
2022-09-03T00:29:25.941Z,100.00
2022-09-03T00:31:58.887Z,100.00
2022-09-03T00:34:36.399Z,100.00
2022-09-03T00:37:04.671Z,100.00
2022-09-03T00:39:36.698Z,100.00
2022-09-03T00:42:30.070Z,100.00
2022-09-03T00:45:05.281Z,100.00
2022-09-03T00:48:17.492Z,100.00
2022-09-03T00:51:16.446Z,100.00
2022-09-03T00:54:15.503Z,100.00
2022-09-03T00:56:59.841Z,100.00
2022-09-03T00:59:52.062Z,100.00
2022-09-03T01:02:52.075Z,100.00
2022-09-03T01:05:47.282Z,100.00
2022-09-03T01:08:42.224Z,100.00
2022-09-03T01:11:51.582Z,100.00
2022-09-03T01:14:55.397Z,100.00
2022-09-03T01:17:34.034Z,100.00
2022-09-03T01:20:05.097Z,100.00
2022-09-03T01:22:51.421Z,100.00
2022-09-03T01:25:36.972Z,100.00
2022-09-03T01:28:41.583Z,100.00
2022-09-03T01:31:39.106Z,100.00
2022-09-03T01:34:16.714Z,100.00
2022-09-03T01:36:45.135Z,100.00
2022-09-03T01:39:50.707Z,100.00
2022-09-03T01:42:54.563Z,100.00
2022-09-03T01:45:40.490Z,100.00
2022-09-03T01:48:40.368Z,100.00
2022-09-03T01:51:19.858Z,100.00
2022-09-03T01:54:25.165Z,100.00
2022-09-03T01:57:46.446Z,100.00
2022-09-03T02:00:20.751Z,100.00
2022-09-03T02:02:51.810Z,100.00
2022-09-03T02:05:26.754Z,100.00
2022-09-03T02:08:02.947Z,100.00
2022-09-03T02:10:54.030Z,100.00
2022-09-03T02:13:27.056Z,100.00
2022-09-03T02:16:00.905Z,100.00
2022-09-03T02:18:34.411Z,100.00
2022-09-03T02:21:02.927Z,100.00
2022-09-03T02:23:31.439Z,100.00
2022-09-03T02:26:04.031Z,100.00
2022-09-03T02:28:33.013Z,100.00
2022-09-03T02:31:01.444Z,100.00
2022-09-03T02:33:39.272Z,100.00
2022-09-03T02:36:11.443Z,100.00
2022-09-03T02:38:42.604Z,100.00
2022-09-03T02:41:13.330Z,100.00
2022-09-03T02:43:59.357Z,100.00
2022-09-03T02:46:38.811Z,100.00
2022-09-03T02:49:08.580Z,100.00
2022-09-03T02:51:40.792Z,100.00
2022-09-03T02:54:12.625Z,100.00
2022-09-03T02:56:41.473Z,100.00
2022-09-03T02:59:09.893Z,100.00
2022-09-03T03:01:38.119Z,100.00
2022-09-03T03:04:11.547Z,100.00
2022-09-03T03:06:39.881Z,100.00
2022-09-03T03:09:08.684Z,100.00
2022-09-03T03:11:37.219Z,100.00
2022-09-03T03:14:06.814Z,100.00
2022-09-03T03:16:35.196Z,100.00
2022-09-03T03:19:03.496Z,100.00
2022-09-03T03:21:31.760Z,100.00
2022-09-03T03:24:02.120Z,100.00
2022-09-03T03:26:30.338Z,100.00
2022-09-03T03:29:01.067Z,100.00
2022-09-03T03:31:29.632Z,100.00
2022-09-03T03:34:00.814Z,100.00
2022-09-03T03:36:32.192Z,100.00
2022-09-03T03:39:01.490Z,100.00
2022-09-03T03:41:32.170Z,100.00
2022-09-03T03:44:04.686Z,100.00
2022-09-03T03:46:38.647Z,100.00
2022-09-03T03:49:08.959Z,100.00
2022-09-03T03:51:38.608Z,100.00
2022-09-03T03:54:06.824Z,100.00
2022-09-03T03:56:35.804Z,100.00
2022-09-03T03:59:04.507Z,100.00
2022-09-03T04:01:34.260Z,100.00
2022-09-03T04:04:02.835Z,100.00
2022-09-03T04:06:30.878Z,100.00
2022-09-03T04:08:59.276Z,100.00
2022-09-03T04:11:27.772Z,100.00
2022-09-03T04:13:56.103Z,100.00
2022-09-03T04:16:28.283Z,100.00
2022-09-03T04:18:58.150Z,100.00
2022-09-03T04:21:28.969Z,100.00
2022-09-03T04:23:58.720Z,100.00
2022-09-03T04:26:32.713Z,100.00
2022-09-03T04:29:04.993Z,100.00
2022-09-03T04:31:34.099Z,100.00
2022-09-03T04:34:03.331Z,100.00
2022-09-03T04:36:31.491Z,100.00
2022-09-03T04:39:04.175Z,100.00
2022-09-03T04:41:32.467Z,100.00
2022-09-03T04:44:01.129Z,100.00
2022-09-03T04:46:33.947Z,100.00
2022-09-03T04:49:03.189Z,100.00
2022-09-03T04:51:32.021Z,100.00
2022-09-03T04:54:01.983Z,100.00
2022-09-03T04:56:35.586Z,100.00
2022-09-03T04:59:07.393Z,100.00
2022-09-03T05:01:38.260Z,100.00
2022-09-03T05:04:07.940Z,100.00
2022-09-03T05:06:37.612Z,100.00
2022-09-03T05:09:06.779Z,100.00
2022-09-03T05:11:35.644Z,100.00
2022-09-03T05:14:05.953Z,100.00
2022-09-03T05:16:34.493Z,100.00
2022-09-03T05:19:03.822Z,100.00
2022-09-03T05:21:32.737Z,100.00
2022-09-03T05:24:01.970Z,100.00
2022-09-03T05:26:32.964Z,100.00
2022-09-03T05:29:04.570Z,100.00
2022-09-03T05:31:32.786Z,100.00
2022-09-03T05:34:03.632Z,100.00
2022-09-03T05:36:35.401Z,100.00
2022-09-03T05:39:05.414Z,100.00
2022-09-03T05:41:34.866Z,100.00
2022-09-03T05:44:04.411Z,100.00
2022-09-03T05:46:33.976Z,100.00
2022-09-03T05:49:05.756Z,100.00
2022-09-03T05:51:38.933Z,100.00
2022-09-03T05:54:08.940Z,100.00
2022-09-03T05:56:41.170Z,100.00
2022-09-03T05:59:12.662Z,100.00
2022-09-03T06:01:51.678Z,100.00
2022-09-03T06:04:22.261Z,100.00
2022-09-03T06:06:50.520Z,100.00
2022-09-03T06:09:21.169Z,100.00
2022-09-03T06:11:54.253Z,100.00
2022-09-03T06:14:25.888Z,100.00
2022-09-03T06:16:56.056Z,100.00
2022-09-03T06:19:24.802Z,100.00
2022-09-03T06:21:54.006Z,100.00
2022-09-03T06:24:29.867Z,100.00
2022-09-03T06:26:58.311Z,100.00
2022-09-03T06:29:28.639Z,100.00
2022-09-03T06:31:58.272Z,100.00
2022-09-03T06:34:27.422Z,100.00
2022-09-03T06:36:56.504Z,100.00
2022-09-03T06:39:26.006Z,100.00
2022-09-03T06:41:55.382Z,100.00
2022-09-03T06:44:28.249Z,100.00
2022-09-03T06:46:56.522Z,100.00
2022-09-03T06:49:27.156Z,100.00
2022-09-03T06:51:55.548Z,100.00
2022-09-03T06:54:25.341Z,100.00
2022-09-03T06:56:53.823Z,100.00
2022-09-03T06:59:21.930Z,100.00
2022-09-03T07:01:50.131Z,100.00
2022-09-03T07:04:19.220Z,100.00
2022-09-03T07:06:48.657Z,100.00
2022-09-03T07:09:19.308Z,100.00
2022-09-03T07:11:48.605Z,100.00
2022-09-03T07:14:19.679Z,100.00
2022-09-03T07:16:51.387Z,100.00
2022-09-03T07:19:20.309Z,100.00
2022-09-03T07:21:50.394Z,100.00
2022-09-03T07:24:22.725Z,100.00
2022-09-03T07:26:51.035Z,100.00
2022-09-03T07:29:20.922Z,100.00
2022-09-03T07:31:52.409Z,100.00
2022-09-03T07:34:25.263Z,100.00
2022-09-03T07:36:55.091Z,100.00
2022-09-03T07:39:23.896Z,100.00
2022-09-03T07:41:52.363Z,100.00
2022-09-03T07:44:20.964Z,100.00
2022-09-03T07:46:51.824Z,100.00
2022-09-03T07:49:22.131Z,100.00
2022-09-03T07:51:54.610Z,100.00
2022-09-03T07:54:24.339Z,100.00
2022-09-03T07:56:52.824Z,100.00
2022-09-03T07:59:23.154Z,100.00
2022-09-03T08:01:51.620Z,100.00
2022-09-03T08:04:21.016Z,100.00
2022-09-03T08:06:49.811Z,100.00
2022-09-03T08:09:18.003Z,100.00
2022-09-03T08:11:47.273Z,100.00
2022-09-03T08:14:19.342Z,100.00
2022-09-03T08:16:50.652Z,100.00
2022-09-03T08:19:19.731Z,100.00
2022-09-03T08:21:50.367Z,100.00
2022-09-03T08:24:22.713Z,100.00
2022-09-03T08:27:28.648Z,100.00
2022-09-03T08:29:57.808Z,100.00
2022-09-03T08:32:26.083Z,100.00
2022-09-03T08:34:56.937Z,100.00
2022-09-03T08:37:37.351Z,100.00
2022-09-03T08:40:07.494Z,100.00
2022-09-03T08:43:09.351Z,100.00
2022-09-03T08:45:43.365Z,100.00
2022-09-03T08:48:25.571Z,100.00
2022-09-03T08:51:05.927Z,100.00
2022-09-03T08:53:51.110Z,100.00
2022-09-03T08:56:29.521Z,100.00
2022-09-03T08:59:02.062Z,100.00
2022-09-03T09:02:00.500Z,100.00
2022-09-03T09:04:48.424Z,100.00
2022-09-03T09:07:32.586Z,100.00
2022-09-03T09:10:26.635Z,100.00
2022-09-03T09:13:21.027Z,100.00
2022-09-03T09:16:19.619Z,100.00
2022-09-03T09:18:53.931Z,100.00
2022-09-03T09:21:32.872Z,100.00
2022-09-03T09:24:13.398Z,100.00
2022-09-03T09:26:46.471Z,100.00
2022-09-03T09:29:16.036Z,100.00
2022-09-03T09:31:45.464Z,100.00
2022-09-03T09:34:13.503Z,100.00
2022-09-03T09:36:52.431Z,100.00
2022-09-03T09:39:21.860Z,100.00
2022-09-03T09:42:12.085Z,100.00
2022-09-03T09:44:43.518Z,100.00
2022-09-03T09:47:40.250Z,100.00
2022-09-03T09:50:24.954Z,100.00
2022-09-03T09:53:14.546Z,100.00
2022-09-03T09:55:58.268Z,100.00
2022-09-03T09:58:31.018Z,100.00
2022-09-03T10:01:04.307Z,100.00
2022-09-03T10:03:35.823Z,100.00
2022-09-03T10:06:26.465Z,100.00
2022-09-03T10:09:07.802Z,100.00
2022-09-03T10:11:40.083Z,100.00
2022-09-03T10:14:17.536Z,100.00
2022-09-03T10:16:50.773Z,100.00
2022-09-03T10:19:23.821Z,100.00
2022-09-03T10:21:58.130Z,100.00
2022-09-03T10:24:47.691Z,100.00
2022-09-03T10:27:18.960Z,100.00
2022-09-03T10:29:47.485Z,100.00
2022-09-03T10:32:39.904Z,100.00
2022-09-03T10:35:19.539Z,100.00
2022-09-03T10:38:12.690Z,99.12
2022-09-03T10:41:21.511Z,96.98
2022-09-03T10:44:25.508Z,93.30
2022-09-03T10:47:19.903Z,90.73
2022-09-03T10:50:04.004Z,86.48
2022-09-03T10:52:49.749Z,90.26
2022-09-03T10:55:37.295Z,85.57
2022-09-03T10:58:38.460Z,83.07
2022-09-03T11:01:30.488Z,81.49
2022-09-03T11:04:20.172Z,80.07
2022-09-03T11:06:58.339Z,80.76
2022-09-03T11:09:35.493Z,80.10
2022-09-03T11:12:39.027Z,80.51
2022-09-03T11:15:12.583Z,79.33
2022-09-03T11:17:47.265Z,79.87
2022-09-03T11:20:26.720Z,76.48
2022-09-03T11:22:59.847Z,76.41
2022-09-03T11:25:36.032Z,78.56
2022-09-03T11:28:21.355Z,80.59
2022-09-03T11:31:06.050Z,81.92
2022-09-03T11:33:41.171Z,80.80
2022-09-03T11:36:11.350Z,79.39
2022-09-03T11:38:39.751Z,76.47
2022-09-03T11:41:26.270Z,75.39
2022-09-03T11:43:54.981Z,74.74
2022-09-03T11:46:23.587Z,76.66
2022-09-03T11:48:58.066Z,76.69
2022-09-03T11:51:33.378Z,79.90
2022-09-03T11:54:21.209Z,80.54
2022-09-03T11:56:50.827Z,81.23
2022-09-03T11:59:26.635Z,82.60
2022-09-03T12:02:17.015Z,83.19
2022-09-03T12:05:19.049Z,82.26
2022-09-03T12:08:19.220Z,83.03
2022-09-03T12:11:14.206Z,82.26
2022-09-03T12:14:00.823Z,80.10
2022-09-03T12:16:44.274Z,78.05
2022-09-03T12:19:35.491Z,74.24
2022-09-03T12:22:05.623Z,73.01
2022-09-03T12:24:38.366Z,74.39
2022-09-03T12:27:10.954Z,73.67
2022-09-03T12:29:50.601Z,73.11
2022-09-03T12:32:18.767Z,71.24
2022-09-03T12:34:47.499Z,71.54
2022-09-03T12:40:21.666Z,73.98
2022-09-03T12:42:51.460Z,75.43
2022-09-03T12:45:24.513Z,75.56
2022-09-03T12:47:53.666Z,74.46
2022-09-03T12:50:25.672Z,72.57
2022-09-03T12:53:02.114Z,72.01
2022-09-03T12:55:45.033Z,72.86
2022-09-03T12:58:37.929Z,69.24
2022-09-03T13:01:14.563Z,70.15
2022-09-03T13:04:03.299Z,67.33
2022-09-03T13:06:52.706Z,64.36
2022-09-03T13:09:24.384Z,65.14
2022-09-03T13:11:55.662Z,62.31
2022-09-03T13:14:27.172Z,62.57
2022-09-03T13:17:15.835Z,65.21
2022-09-03T13:19:50.720Z,65.62
2022-09-03T13:22:25.623Z,67.55
2022-09-03T13:25:21.385Z,68.47
2022-09-03T13:28:11.702Z,68.79
2022-09-03T13:31:04.247Z,70.27
2022-09-03T13:33:43.982Z,70.84
2022-09-03T13:36:26.894Z,72.38
2022-09-03T13:39:06.535Z,72.76
2022-09-03T13:41:55.133Z,73.44
2022-09-03T13:44:45.566Z,73.36
2022-09-03T13:47:34.666Z,73.52
2022-09-03T13:50:23.752Z,73.04
2022-09-03T13:53:07.348Z,72.07
2022-09-03T13:55:45.170Z,71.84
2022-09-03T13:58:36.730Z,73.65
2022-09-03T14:01:21.130Z,74.73
2022-09-03T14:03:54.683Z,74.61
2022-09-03T14:06:50.994Z,76.06
2022-09-03T14:09:53.700Z,78.16
2022-09-03T14:12:26.818Z,79.82
2022-09-03T14:15:05.462Z,80.62
2022-09-03T14:17:52.967Z,80.89
2022-09-03T14:20:29.536Z,80.87
2022-09-03T14:23:16.918Z,80.81
2022-09-03T14:25:56.223Z,78.45
2022-09-03T14:28:40.663Z,76.55
2022-09-03T14:31:52.247Z,76.90
2022-09-03T14:34:45.905Z,78.15
2022-09-03T14:37:20.101Z,78.57
2022-09-03T14:39:55.693Z,79.57
2022-09-03T14:42:36.863Z,79.93
2022-09-03T14:45:26.872Z,80.17
2022-09-03T14:48:04.604Z,80.78
2022-09-03T14:50:43.482Z,81.71
2022-09-03T14:53:28.970Z,81.19
2022-09-03T14:56:07.015Z,81.87
2022-09-03T14:59:18.512Z,82.61
2022-09-03T15:02:04.876Z,82.50
2022-09-03T15:04:56.712Z,82.99
2022-09-03T15:07:49.610Z,83.56
2022-09-03T15:10:39.037Z,84.09
2022-09-03T15:13:20.838Z,84.60
2022-09-03T15:16:06.375Z,84.28
2022-09-03T15:18:53.221Z,84.63
2022-09-03T15:21:53.551Z,85.15
2022-09-03T15:24:39.343Z,85.83
2022-09-03T15:27:20.932Z,86.30
2022-09-03T15:30:05.425Z,86.98
2022-09-03T15:33:11.321Z,87.43
2022-09-03T15:36:09.050Z,86.89
2022-09-03T15:38:44.511Z,87.72
2022-09-03T15:41:40.417Z,87.76
2022-09-03T15:44:19.016Z,87.83
2022-09-03T15:47:51.134Z,88.40
2022-09-03T15:50:33.249Z,89.11
2022-09-03T15:53:16.742Z,88.75
2022-09-03T15:55:47.122Z,88.81
2022-09-03T15:58:31.903Z,88.86
2022-09-03T16:01:58.754Z,89.81
2022-09-03T16:05:08.479Z,89.59
2022-09-03T16:07:50.036Z,89.83
2022-09-03T16:10:25.516Z,90.62
2022-09-03T16:13:19.370Z,91.43
2022-09-03T16:16:10.451Z,92.05
2022-09-03T16:19:22.085Z,92.33
2022-09-03T16:22:05.833Z,92.13
2022-09-03T16:24:54.802Z,92.24
2022-09-03T16:27:40.202Z,92.58
2022-09-03T16:30:13.160Z,92.48
2022-09-03T16:33:07.054Z,93.31
2022-09-03T16:35:44.710Z,92.89
2022-09-03T16:38:54.938Z,93.37
2022-09-03T16:41:45.033Z,94.44
2022-09-03T16:44:46.093Z,95.37
2022-09-03T16:47:19.709Z,95.41
2022-09-03T16:50:40.994Z,95.93
2022-09-03T16:53:34.332Z,95.87
2022-09-03T16:56:34.535Z,96.44
2022-09-03T16:59:40.627Z,96.44
2022-09-03T17:02:41.605Z,96.63
2022-09-03T17:05:30.370Z,96.77
2022-09-03T17:08:18.684Z,97.00
2022-09-03T17:10:56.231Z,96.90
2022-09-03T17:13:33.266Z,97.16
2022-09-03T17:16:38.917Z,97.05
2022-09-03T17:19:26.079Z,97.00
2022-09-03T17:22:17.197Z,96.82
2022-09-03T17:24:55.585Z,95.96
2022-09-03T17:27:52.670Z,95.82
2022-09-03T17:30:47.091Z,95.89
2022-09-03T17:33:36.574Z,95.33
2022-09-03T17:36:31.889Z,95.81
2022-09-03T17:39:07.090Z,95.02
2022-09-03T17:41:46.599Z,95.15
2022-09-03T17:44:56.774Z,95.06
2022-09-03T17:48:03.908Z,95.39
2022-09-03T17:50:47.323Z,95.51
2022-09-03T17:53:21.384Z,95.32
2022-09-03T17:56:01.737Z,94.71
2022-09-03T17:58:37.278Z,93.99
2022-09-03T18:01:17.293Z,94.81
2022-09-03T18:04:05.470Z,94.98
2022-09-03T18:07:18.287Z,95.25
2022-09-03T18:09:56.660Z,95.54
2022-09-03T18:13:01.366Z,95.75
2022-09-03T18:15:50.635Z,95.89
2022-09-03T18:18:31.186Z,94.54
2022-09-03T18:21:27.565Z,94.13
2022-09-03T18:24:44.214Z,94.77
2022-09-03T18:27:39.752Z,95.47
2022-09-03T18:30:30.348Z,94.92
2022-09-03T18:33:17.143Z,95.30
2022-09-03T18:36:05.487Z,95.68
2022-09-03T18:38:55.032Z,95.87
2022-09-03T18:42:00.244Z,95.71
2022-09-03T18:45:20.761Z,95.61
2022-09-03T18:48:21.236Z,95.68
2022-09-03T18:51:32.098Z,96.08
2022-09-03T18:55:06.116Z,96.04
2022-09-03T18:58:19.348Z,95.84
2022-09-03T19:01:28.122Z,96.23
2022-09-03T19:05:07.805Z,96.43
2022-09-03T19:08:42.889Z,96.73
2022-09-03T19:11:45.648Z,97.09
2022-09-03T19:15:01.105Z,97.21
2022-09-03T19:18:17.348Z,99.16
2022-09-03T19:21:29.822Z,98.36
2022-09-03T19:24:21.072Z,99.20
2022-09-03T19:27:53.394Z,99.13
2022-09-03T19:31:11.103Z,99.79
2022-09-03T19:34:42.038Z,100.00
2022-09-03T19:37:36.992Z,100.00
2022-09-03T19:41:01.436Z,100.00
2022-09-03T19:44:06.266Z,100.00
2022-09-03T19:47:06.469Z,100.00
2022-09-03T19:50:12.162Z,100.00
2022-09-03T19:53:13.389Z,100.00
2022-09-03T19:56:07.962Z,100.00
2022-09-03T19:58:59.766Z,100.00
2022-09-03T20:01:52.545Z,100.00
2022-09-03T20:04:51.695Z,100.00
2022-09-03T20:07:39.902Z,100.00
2022-09-03T20:10:25.005Z,100.00
2022-09-03T20:13:05.504Z,100.00
2022-09-03T20:15:42.231Z,100.00
2022-09-03T20:18:35.422Z,100.00
2022-09-03T20:21:27.939Z,100.00
2022-09-03T20:24:29.138Z,100.00
2022-09-03T20:27:23.244Z,100.00
2022-09-03T20:30:21.077Z,100.00
2022-09-03T20:33:25.760Z,100.00
2022-09-03T20:36:02.019Z,100.00
2022-09-03T20:38:49.533Z,100.00
2022-09-03T20:41:42.517Z,100.00
2022-09-03T20:44:23.219Z,100.00
2022-09-03T20:47:13.469Z,100.00
2022-09-03T20:50:13.482Z,100.00
2022-09-03T20:53:18.850Z,100.00
2022-09-03T20:55:53.510Z,100.00
2022-09-03T20:58:35.249Z,100.00
2022-09-03T21:01:09.510Z,100.00
2022-09-03T21:03:57.391Z,100.00
2022-09-03T21:06:56.557Z,100.00
2022-09-03T21:09:43.526Z,100.00
2022-09-03T21:12:52.429Z,100.00
2022-09-03T21:15:56.525Z,100.00
2022-09-03T21:18:51.867Z,100.00
2022-09-03T21:21:41.523Z,100.00
2022-09-03T21:24:23.952Z,100.00
2022-09-03T21:27:05.407Z,100.00
2022-09-03T21:29:45.165Z,100.00
2022-09-03T21:32:25.674Z,100.00
2022-09-03T21:35:21.471Z,100.00
2022-09-03T21:38:17.678Z,100.00
2022-09-03T21:40:53.781Z,100.00
2022-09-03T21:43:43.118Z,100.00
2022-09-03T21:46:18.931Z,100.00
2022-09-03T21:48:53.130Z,100.00
2022-09-03T21:51:36.491Z,100.00
2022-09-03T21:54:13.734Z,100.00
2022-09-03T21:56:49.849Z,100.00
2022-09-03T21:59:34.687Z,100.00
2022-09-03T22:02:05.862Z,100.00
2022-09-03T22:04:34.295Z,100.00
2022-09-03T22:07:20.254Z,100.00
2022-09-03T22:10:04.123Z,100.00
2022-09-03T22:13:04.418Z,100.00
2022-09-03T22:15:33.478Z,100.00
2022-09-03T22:18:28.787Z,100.00
2022-09-03T22:21:15.682Z,100.00
2022-09-03T22:24:07.640Z,100.00
2022-09-03T22:26:49.265Z,100.00
2022-09-03T22:29:30.530Z,100.00
2022-09-03T22:32:40.890Z,100.00
2022-09-03T22:35:23.187Z,100.00
2022-09-03T22:38:29.750Z,100.00
2022-09-03T22:41:13.665Z,100.00
2022-09-03T22:44:07.143Z,100.00
2022-09-03T22:46:54.092Z,100.00
2022-09-03T22:49:54.361Z,100.00
2022-09-03T22:52:31.702Z,100.00
2022-09-03T22:55:14.142Z,100.00
2022-09-03T22:58:07.303Z,100.00
2022-09-03T23:00:45.448Z,100.00
2022-09-03T23:03:24.572Z,100.00
2022-09-03T23:06:32.506Z,100.00
2022-09-03T23:09:05.427Z,100.00
2022-09-03T23:11:47.811Z,100.00
2022-09-03T23:14:51.602Z,100.00
2022-09-03T23:22:42.513Z,100.00
2022-09-03T23:25:23.829Z,100.00
2022-09-03T23:28:36.837Z,100.00
2022-09-03T23:31:28.671Z,100.00
2022-09-03T23:33:57.657Z,100.00
2022-09-03T23:37:22.392Z,100.00
2022-09-03T23:40:16.528Z,100.00
2022-09-03T23:43:35.786Z,100.00
2022-09-03T23:46:21.720Z,100.00
2022-09-03T23:49:05.302Z,100.00
2022-09-03T23:52:21.320Z,100.00
2022-09-03T23:55:04.436Z,100.00
2022-09-03T23:57:55.424Z,100.00
